TKJ4LT LTFJ-UGTB
Flight info
| Callsign | TKJ4LT |
|---|---|
| Flight time | 1h 52m |
| Altitude | 27000 |
| Route | VICEN1K/24R VICEN T380 ASMAP L333 RIPNU UL333 LATGA UT363 ESB UT364 ILHAN UW71 TBN UN61 NOLGA N61 LAGAS |
| Aircraft | B738/M-SDE2E3FGHIRWXY/LB1 |
Departure
| Time | 2026-04-24 22:01 |
|---|---|
| Airport | Istanbul Sabiha Gökçen International Airport (LTFJ) |
Arrival
| Time | 2026-04-24 23:53 |
|---|---|
| Airport | Tbilisi International Airport (UGTB) |
| Time | Latitude | Longitude | Altitude | Speed | Heading |
|---|---|---|---|---|---|
| 2026-04-24 21:37 | 40.90892 | 29.31888 | 320 ft | 0 kts | 243° |
| 2026-04-24 21:52 | 40.90897 | 29.31902 | 320 ft | 2 kts | 243° |
| 2026-04-24 21:53 | 40.90904 | 29.31919 | 320 ft | 2 kts | 243° |
| 2026-04-24 21:53 | 40.90908 | 29.31931 | 320 ft | 1 kts | 244° |
| 2026-04-24 21:53 | 40.90917 | 29.31945 | 320 ft | 2 kts | 200° |
| 2026-04-24 21:53 | 40.90931 | 29.31946 | 320 ft | 1 kts | 159° |
| 2026-04-24 21:54 | 40.90936 | 29.31942 | 320 ft | 1 kts | 150° |
| 2026-04-24 21:54 | 40.90939 | 29.31940 | 320 ft | 0 kts | 152° |
| 2026-04-24 21:57 | 40.90926 | 29.31949 | 320 ft | 5 kts | 153° |
| 2026-04-24 21:57 | 40.90893 | 29.31970 | 320 ft | 6 kts | 153° |
| 2026-04-24 21:57 | 40.90841 | 29.32028 | 320 ft | 13 kts | 115° |
| 2026-04-24 21:57 | 40.90774 | 29.32101 | 320 ft | 12 kts | 154° |
| 2026-04-24 21:58 | 40.90718 | 29.32154 | 320 ft | 8 kts | 98° |
| 2026-04-24 21:58 | 40.90739 | 29.32225 | 320 ft | 8 kts | 84° |
| 2026-04-24 21:58 | 40.90698 | 29.32288 | 320 ft | 11 kts | 152° |
| 2026-04-24 21:58 | 40.90629 | 29.32333 | 320 ft | 10 kts | 149° |
| 2026-04-24 21:59 | 40.90592 | 29.32406 | 320 ft | 9 kts | 130° |
| 2026-04-24 21:59 | 40.90542 | 29.32447 | 320 ft | 7 kts | 154° |
| 2026-04-24 21:59 | 40.90496 | 29.32475 | 320 ft | 6 kts | 154° |
| 2026-04-24 21:59 | 40.90451 | 29.32503 | 320 ft | 6 kts | 163° |
| 2026-04-24 22:00 | 40.90423 | 29.32471 | 320 ft | 6 kts | 244° |
| 2026-04-24 22:00 | 40.90355 | 29.32284 | 320 ft | 57 kts | 244° |
| 2026-04-24 22:00 | 40.90059 | 29.31484 | 321 ft | 133 kts | 243° |
| 2026-04-24 22:00 | 40.89588 | 29.30191 | 668 ft | 166 kts | 244° |
| 2026-04-24 22:01 | 40.89094 | 29.28794 | 1467 ft | 172 kts | 244° |
| 2026-04-24 22:01 | 40.88568 | 29.27370 | 2220 ft | 177 kts | 244° |
| 2026-04-24 22:01 | 40.88008 | 29.25859 | 2711 ft | 191 kts | 245° |
| 2026-04-24 22:01 | 40.87413 | 29.24212 | 3194 ft | 207 kts | 245° |
| 2026-04-24 22:02 | 40.86779 | 29.22439 | 3694 ft | 222 kts | 245° |
| 2026-04-24 22:02 | 40.86097 | 29.20531 | 4018 ft | 239 kts | 245° |
| 2026-04-24 22:02 | 40.85238 | 29.18614 | 3995 ft | 248 kts | 230° |
| 2026-04-24 22:02 | 40.83834 | 29.17255 | 4003 ft | 255 kts | 202° |
| 2026-04-24 22:03 | 40.82067 | 29.16744 | 4074 ft | 273 kts | 181° |
| 2026-04-24 22:03 | 40.80194 | 29.16993 | 4963 ft | 273 kts | 161° |
| 2026-04-24 22:03 | 40.78585 | 29.18213 | 5823 ft | 272 kts | 133° |
| 2026-04-24 22:03 | 40.77543 | 29.20270 | 6666 ft | 271 kts | 110° |
| 2026-04-24 22:04 | 40.77032 | 29.22636 | 7459 ft | 274 kts | 98° |
| 2026-04-24 22:04 | 40.76781 | 29.25122 | 8245 ft | 278 kts | 94° |
| 2026-04-24 22:04 | 40.76594 | 29.27663 | 9036 ft | 282 kts | 93° |
| 2026-04-24 22:04 | 40.76399 | 29.30263 | 9797 ft | 287 kts | 94° |
| 2026-04-24 22:05 | 40.76186 | 29.32871 | 10427 ft | 296 kts | 94° |
| 2026-04-24 22:05 | 40.75948 | 29.35642 | 10863 ft | 313 kts | 95° |
| 2026-04-24 22:05 | 40.75691 | 29.38559 | 11282 ft | 329 kts | 95° |
| 2026-04-24 22:05 | 40.75417 | 29.41634 | 11678 ft | 345 kts | 94° |
| 2026-04-24 22:06 | 40.75129 | 29.44854 | 12126 ft | 359 kts | 95° |
| 2026-04-24 22:06 | 40.74838 | 29.48097 | 12854 ft | 363 kts | 94° |
| 2026-04-24 22:06 | 40.74540 | 29.51388 | 13558 ft | 367 kts | 94° |
| 2026-04-24 22:06 | 40.74236 | 29.54745 | 14236 ft | 371 kts | 94° |
| 2026-04-24 22:07 | 40.73932 | 29.58106 | 14918 ft | 375 kts | 94° |
| 2026-04-24 22:07 | 40.73618 | 29.61561 | 15586 ft | 379 kts | 94° |
| 2026-04-24 22:07 | 40.73304 | 29.65018 | 16251 ft | 384 kts | 95° |
| 2026-04-24 22:07 | 40.72985 | 29.68515 | 16905 ft | 387 kts | 95° |
| 2026-04-24 22:08 | 40.72665 | 29.72005 | 17496 ft | 390 kts | 95° |
| 2026-04-24 22:08 | 40.72337 | 29.75579 | 18127 ft | 394 kts | 95° |
| 2026-04-24 22:08 | 40.72008 | 29.79150 | 18711 ft | 397 kts | 95° |
| 2026-04-24 22:08 | 40.71672 | 29.82774 | 19300 ft | 400 kts | 95° |
| 2026-04-24 22:09 | 40.71332 | 29.86438 | 19945 ft | 403 kts | 95° |
| 2026-04-24 22:09 | 40.70989 | 29.90125 | 20504 ft | 406 kts | 95° |
| 2026-04-24 22:09 | 40.70644 | 29.93809 | 21021 ft | 409 kts | 95° |
| 2026-04-24 22:09 | 40.70295 | 29.97529 | 21532 ft | 413 kts | 95° |
| 2026-04-24 22:10 | 40.69942 | 30.01281 | 22048 ft | 415 kts | 95° |
| 2026-04-24 22:10 | 40.69585 | 30.05061 | 22527 ft | 418 kts | 95° |
| 2026-04-24 22:10 | 40.69222 | 30.08883 | 23007 ft | 421 kts | 95° |
| 2026-04-24 22:10 | 40.68860 | 30.12683 | 23492 ft | 423 kts | 95° |
| 2026-04-24 22:11 | 40.68489 | 30.16559 | 23967 ft | 425 kts | 95° |
| 2026-04-24 22:11 | 40.68123 | 30.20383 | 24424 ft | 427 kts | 94° |
| 2026-04-24 22:11 | 40.67748 | 30.24280 | 24958 ft | 428 kts | 95° |
| 2026-04-24 22:11 | 40.67377 | 30.28121 | 25611 ft | 425 kts | 94° |
| 2026-04-24 22:12 | 40.67005 | 30.31945 | 26341 ft | 421 kts | 94° |
| 2026-04-24 22:12 | 40.66628 | 30.35800 | 26911 ft | 419 kts | 94° |
| 2026-04-24 22:12 | 40.66257 | 30.39610 | 27029 ft | 423 kts | 94° |
| 2026-04-24 22:12 | 40.65881 | 30.43448 | 27041 ft | 420 kts | 94° |
| 2026-04-24 22:13 | 40.65506 | 30.47259 | 27046 ft | 419 kts | 94° |
| 2026-04-24 22:13 | 40.65129 | 30.51082 | 27047 ft | 419 kts | 94° |
| 2026-04-24 22:13 | 40.64751 | 30.54906 | 27048 ft | 420 kts | 94° |
| 2026-04-24 22:13 | 40.64371 | 30.58745 | 27050 ft | 419 kts | 94° |
| 2026-04-24 22:14 | 40.63993 | 30.62538 | 27050 ft | 420 kts | 94° |
| 2026-04-24 22:14 | 40.63616 | 30.66315 | 27049 ft | 420 kts | 95° |
| 2026-04-24 22:14 | 40.63215 | 30.70165 | 27047 ft | 421 kts | 96° |
| 2026-04-24 22:14 | 40.62660 | 30.73947 | 27047 ft | 423 kts | 100° |
| 2026-04-24 22:15 | 40.61944 | 30.77679 | 27044 ft | 423 kts | 102° |
| 2026-04-24 22:15 | 40.61149 | 30.81399 | 27043 ft | 424 kts | 103° |
| 2026-04-24 22:15 | 40.60316 | 30.85154 | 27042 ft | 425 kts | 104° |
| 2026-04-24 22:15 | 40.59482 | 30.88897 | 27042 ft | 424 kts | 104° |
| 2026-04-24 22:16 | 40.58659 | 30.92617 | 27041 ft | 424 kts | 103° |
| 2026-04-24 22:16 | 40.57846 | 30.96326 | 27040 ft | 425 kts | 103° |
| 2026-04-24 22:16 | 40.57039 | 31.00036 | 27041 ft | 425 kts | 103° |
| 2026-04-24 22:16 | 40.56226 | 31.03791 | 27042 ft | 425 kts | 103° |
| 2026-04-24 22:17 | 40.55425 | 31.07511 | 27045 ft | 426 kts | 103° |
| 2026-04-24 22:17 | 40.54610 | 31.11292 | 27046 ft | 426 kts | 103° |
| 2026-04-24 22:17 | 40.53804 | 31.15040 | 27049 ft | 426 kts | 103° |
| 2026-04-24 22:17 | 40.52998 | 31.18787 | 27050 ft | 427 kts | 103° |
| 2026-04-24 22:18 | 40.52196 | 31.22511 | 27051 ft | 427 kts | 103° |
| 2026-04-24 22:18 | 40.51379 | 31.26294 | 27052 ft | 427 kts | 103° |
| 2026-04-24 22:18 | 40.50567 | 31.30048 | 27051 ft | 428 kts | 103° |
| 2026-04-24 22:18 | 40.49755 | 31.33797 | 27048 ft | 428 kts | 103° |
| 2026-04-24 22:19 | 40.48942 | 31.37540 | 27049 ft | 428 kts | 103° |
| 2026-04-24 22:19 | 40.48120 | 31.41319 | 27049 ft | 429 kts | 103° |
| 2026-04-24 22:19 | 40.47302 | 31.45073 | 27047 ft | 428 kts | 103° |
| 2026-04-24 22:19 | 40.46483 | 31.48830 | 27046 ft | 430 kts | 103° |
| 2026-04-24 22:20 | 40.45667 | 31.52570 | 27044 ft | 430 kts | 103° |
| 2026-04-24 22:20 | 40.44839 | 31.56361 | 27042 ft | 431 kts | 103° |
| 2026-04-24 22:20 | 40.44015 | 31.60125 | 27041 ft | 431 kts | 103° |
| 2026-04-24 22:20 | 40.43312 | 31.63335 | 27043 ft | 431 kts | 103° |
| 2026-04-24 22:21 | 40.43117 | 31.64226 | 27043 ft | 431 kts | 103° |
| 2026-04-24 22:21 | 40.42290 | 31.67996 | 27041 ft | 432 kts | 104° |
| 2026-04-24 22:22 | 40.41452 | 31.71804 | 27040 ft | 431 kts | 104° |
| 2026-04-24 22:22 | 40.40623 | 31.75568 | 27043 ft | 432 kts | 104° |
| 2026-04-24 22:22 | 40.39795 | 31.79321 | 27044 ft | 432 kts | 104° |
| 2026-04-24 22:22 | 40.38950 | 31.83145 | 27043 ft | 432 kts | 104° |
| 2026-04-24 22:23 | 40.38121 | 31.86890 | 27044 ft | 431 kts | 104° |
| 2026-04-24 22:23 | 40.37273 | 31.90708 | 27042 ft | 433 kts | 104° |
| 2026-04-24 22:23 | 40.36436 | 31.94477 | 27042 ft | 432 kts | 104° |
| 2026-04-24 22:23 | 40.35596 | 31.98244 | 27040 ft | 433 kts | 104° |
| 2026-04-24 22:24 | 40.34742 | 32.02056 | 27043 ft | 434 kts | 104° |
| 2026-04-24 22:24 | 40.33885 | 32.05868 | 27047 ft | 435 kts | 104° |
| 2026-04-24 22:24 | 40.33033 | 32.09657 | 27042 ft | 435 kts | 104° |
| 2026-04-24 22:24 | 40.32217 | 32.13468 | 27048 ft | 435 kts | 103° |
| 2026-04-24 22:25 | 40.31450 | 32.17298 | 27049 ft | 436 kts | 102° |
| 2026-04-24 22:25 | 40.30699 | 32.21156 | 27053 ft | 436 kts | 102° |
| 2026-04-24 22:25 | 40.29950 | 32.25040 | 27054 ft | 436 kts | 102° |
| 2026-04-24 22:25 | 40.29213 | 32.28847 | 27054 ft | 436 kts | 102° |
| 2026-04-24 22:26 | 40.28461 | 32.32706 | 27050 ft | 436 kts | 102° |
| 2026-04-24 22:26 | 40.27710 | 32.36538 | 27050 ft | 436 kts | 102° |
| 2026-04-24 22:26 | 40.26947 | 32.40402 | 27051 ft | 438 kts | 102° |
| 2026-04-24 22:26 | 40.26187 | 32.44238 | 27052 ft | 438 kts | 103° |
| 2026-04-24 22:27 | 40.25412 | 32.48127 | 27052 ft | 439 kts | 103° |
| 2026-04-24 22:27 | 40.24647 | 32.51956 | 27052 ft | 440 kts | 103° |
| 2026-04-24 22:27 | 40.23871 | 32.55832 | 27055 ft | 439 kts | 103° |
| 2026-04-24 22:27 | 40.23087 | 32.59731 | 27049 ft | 440 kts | 103° |
| 2026-04-24 22:28 | 40.22308 | 32.63596 | 27051 ft | 438 kts | 103° |
| 2026-04-24 22:28 | 40.21536 | 32.67417 | 27054 ft | 439 kts | 104° |
| 2026-04-24 22:28 | 40.20757 | 32.71270 | 27054 ft | 440 kts | 104° |
| 2026-04-24 22:28 | 40.19973 | 32.75140 | 27048 ft | 440 kts | 104° |
| 2026-04-24 22:29 | 40.18402 | 32.82875 | 27037 ft | 440 kts | 104° |
| 2026-04-24 22:29 | 40.17612 | 32.86757 | 27037 ft | 441 kts | 104° |
| 2026-04-24 22:29 | 40.16816 | 32.90654 | 27034 ft | 441 kts | 104° |
| 2026-04-24 22:30 | 40.16114 | 32.94537 | 27034 ft | 441 kts | 99° |
| 2026-04-24 22:30 | 40.15807 | 32.98501 | 27031 ft | 440 kts | 88° |
| 2026-04-24 22:30 | 40.16138 | 33.02459 | 27031 ft | 438 kts | 75° |
| 2026-04-24 22:30 | 40.17039 | 33.06206 | 27032 ft | 435 kts | 65° |
| 2026-04-24 22:31 | 40.18288 | 33.09791 | 27031 ft | 433 kts | 61° |
| 2026-04-24 22:31 | 40.19699 | 33.13274 | 27026 ft | 435 kts | 58° |
| 2026-04-24 22:31 | 40.21198 | 33.16734 | 27033 ft | 433 kts | 57° |
| 2026-04-24 22:31 | 40.22708 | 33.20133 | 27034 ft | 433 kts | 57° |
| 2026-04-24 22:32 | 40.24224 | 33.23534 | 27032 ft | 435 kts | 57° |
| 2026-04-24 22:32 | 40.25751 | 33.26981 | 27034 ft | 434 kts | 57° |
| 2026-04-24 22:32 | 40.27249 | 33.30388 | 27043 ft | 432 kts | 57° |
| 2026-04-24 22:32 | 40.28749 | 33.33828 | 27046 ft | 432 kts | 57° |
| 2026-04-24 22:33 | 40.30236 | 33.37255 | 27046 ft | 434 kts | 57° |
| 2026-04-24 22:33 | 40.31730 | 33.40712 | 27046 ft | 432 kts | 57° |
| 2026-04-24 22:33 | 40.33224 | 33.44181 | 27044 ft | 434 kts | 57° |
| 2026-04-24 22:33 | 40.34696 | 33.47607 | 27046 ft | 433 kts | 57° |
| 2026-04-24 22:34 | 40.36162 | 33.51028 | 27044 ft | 434 kts | 57° |
| 2026-04-24 22:34 | 40.37640 | 33.54482 | 27042 ft | 434 kts | 57° |
| 2026-04-24 22:34 | 40.39115 | 33.57935 | 27037 ft | 436 kts | 57° |
| 2026-04-24 22:34 | 40.40584 | 33.61377 | 27046 ft | 433 kts | 57° |
| 2026-04-24 22:35 | 40.42070 | 33.64863 | 27044 ft | 434 kts | 57° |
| 2026-04-24 22:35 | 40.43518 | 33.68367 | 27050 ft | 436 kts | 60° |
| 2026-04-24 22:35 | 40.44772 | 33.71984 | 27054 ft | 438 kts | 65° |
| 2026-04-24 22:35 | 40.45860 | 33.75746 | 27061 ft | 439 kts | 68° |
| 2026-04-24 22:36 | 40.46842 | 33.79535 | 27065 ft | 439 kts | 69° |
| 2026-04-24 22:36 | 40.47773 | 33.83320 | 27064 ft | 440 kts | 69° |
| 2026-04-24 22:36 | 40.48696 | 33.87142 | 27068 ft | 440 kts | 70° |
| 2026-04-24 22:36 | 40.49632 | 33.91029 | 27066 ft | 442 kts | 69° |
| 2026-04-24 22:37 | 40.50557 | 33.94844 | 27066 ft | 439 kts | 69° |
| 2026-04-24 22:37 | 40.51579 | 33.98655 | 27065 ft | 440 kts | 66° |
| 2026-04-24 22:37 | 40.52697 | 34.02407 | 27061 ft | 439 kts | 64° |
| 2026-04-24 22:37 | 40.53847 | 34.06080 | 27058 ft | 439 kts | 64° |
| 2026-04-24 22:38 | 40.55027 | 34.09793 | 27058 ft | 440 kts | 64° |
| 2026-04-24 22:38 | 40.56207 | 34.13508 | 27057 ft | 440 kts | 64° |
| 2026-04-24 22:38 | 40.57380 | 34.17227 | 27058 ft | 441 kts | 64° |
| 2026-04-24 22:38 | 40.58540 | 34.20940 | 27060 ft | 439 kts | 64° |
| 2026-04-24 22:39 | 40.59700 | 34.24677 | 27058 ft | 440 kts | 64° |
| 2026-04-24 22:39 | 40.60847 | 34.28394 | 27055 ft | 440 kts | 64° |
| 2026-04-24 22:39 | 40.61998 | 34.32139 | 27054 ft | 441 kts | 64° |
| 2026-04-24 22:39 | 40.63142 | 34.35877 | 27054 ft | 440 kts | 64° |
| 2026-04-24 22:40 | 40.64286 | 34.39621 | 27053 ft | 442 kts | 64° |
| 2026-04-24 22:40 | 40.65425 | 34.43357 | 27056 ft | 441 kts | 64° |
| 2026-04-24 22:40 | 40.66557 | 34.47085 | 27056 ft | 440 kts | 64° |
| 2026-04-24 22:40 | 40.67707 | 34.50875 | 27057 ft | 443 kts | 64° |
| 2026-04-24 22:41 | 40.68847 | 34.54635 | 27060 ft | 443 kts | 64° |
| 2026-04-24 22:41 | 40.69981 | 34.58387 | 27062 ft | 442 kts | 64° |
| 2026-04-24 22:41 | 40.71125 | 34.62175 | 27068 ft | 442 kts | 64° |
| 2026-04-24 22:41 | 40.72241 | 34.65872 | 27070 ft | 441 kts | 65° |
| 2026-04-24 22:42 | 40.73376 | 34.69640 | 27072 ft | 445 kts | 65° |
| 2026-04-24 22:42 | 40.74522 | 34.73445 | 27076 ft | 443 kts | 65° |
| 2026-04-24 22:42 | 40.75651 | 34.77219 | 27079 ft | 442 kts | 65° |
| 2026-04-24 22:42 | 40.76770 | 34.81002 | 27078 ft | 444 kts | 65° |
| 2026-04-24 22:43 | 40.77888 | 34.84804 | 27079 ft | 443 kts | 65° |
| 2026-04-24 22:43 | 40.79003 | 34.88609 | 27077 ft | 443 kts | 65° |
| 2026-04-24 22:43 | 40.80120 | 34.92424 | 27075 ft | 445 kts | 65° |
| 2026-04-24 22:43 | 40.81222 | 34.96189 | 27074 ft | 444 kts | 65° |
| 2026-04-24 22:44 | 40.82338 | 35.00014 | 27070 ft | 443 kts | 65° |
| 2026-04-24 22:44 | 40.83440 | 35.03791 | 27070 ft | 443 kts | 65° |
| 2026-04-24 22:44 | 40.84550 | 35.07595 | 27067 ft | 442 kts | 65° |
| 2026-04-24 22:44 | 40.85654 | 35.11387 | 27069 ft | 443 kts | 65° |
| 2026-04-24 22:45 | 40.86755 | 35.15165 | 27062 ft | 445 kts | 65° |
| 2026-04-24 22:45 | 40.87870 | 35.19004 | 27053 ft | 444 kts | 65° |
| 2026-04-24 22:45 | 40.88969 | 35.22793 | 27052 ft | 444 kts | 65° |
| 2026-04-24 22:45 | 40.90083 | 35.26637 | 27040 ft | 446 kts | 65° |
| 2026-04-24 22:46 | 40.91182 | 35.30436 | 27044 ft | 446 kts | 65° |
| 2026-04-24 22:46 | 40.92292 | 35.34275 | 27039 ft | 446 kts | 65° |
| 2026-04-24 22:46 | 40.93391 | 35.38085 | 27048 ft | 446 kts | 65° |
| 2026-04-24 22:46 | 40.94496 | 35.41919 | 27048 ft | 448 kts | 65° |
| 2026-04-24 22:47 | 40.95617 | 35.45816 | 27047 ft | 449 kts | 65° |
| 2026-04-24 22:47 | 40.96717 | 35.49647 | 27046 ft | 447 kts | 65° |
| 2026-04-24 22:47 | 40.97834 | 35.53538 | 27048 ft | 449 kts | 65° |
| 2026-04-24 22:47 | 40.98942 | 35.57402 | 27049 ft | 448 kts | 65° |
| 2026-04-24 22:48 | 41.00033 | 35.61214 | 27063 ft | 448 kts | 65° |
| 2026-04-24 22:48 | 41.01150 | 35.65120 | 27063 ft | 449 kts | 66° |
| 2026-04-24 22:48 | 41.02258 | 35.69002 | 27074 ft | 450 kts | 66° |
| 2026-04-24 22:48 | 41.03368 | 35.72857 | 27071 ft | 451 kts | 66° |
| 2026-04-24 22:49 | 41.04493 | 35.76704 | 27075 ft | 451 kts | 65° |
| 2026-04-24 22:49 | 41.05641 | 35.80601 | 27083 ft | 450 kts | 65° |
| 2026-04-24 22:49 | 41.06780 | 35.84461 | 27076 ft | 451 kts | 65° |
| 2026-04-24 22:49 | 41.07924 | 35.88340 | 27072 ft | 451 kts | 65° |
| 2026-04-24 22:50 | 41.09064 | 35.92213 | 27081 ft | 453 kts | 65° |
| 2026-04-24 22:50 | 41.10207 | 35.96134 | 27075 ft | 453 kts | 66° |
| 2026-04-24 22:50 | 41.11314 | 36.00016 | 27080 ft | 454 kts | 66° |
| 2026-04-24 22:50 | 41.12419 | 36.03938 | 27079 ft | 454 kts | 66° |
| 2026-04-24 22:51 | 41.13522 | 36.07882 | 27080 ft | 454 kts | 66° |
| 2026-04-24 22:51 | 41.14610 | 36.11786 | 27082 ft | 454 kts | 66° |
| 2026-04-24 22:51 | 41.15716 | 36.15757 | 27084 ft | 454 kts | 66° |
| 2026-04-24 22:51 | 41.16815 | 36.19706 | 27088 ft | 455 kts | 66° |
| 2026-04-24 22:52 | 41.17912 | 36.23643 | 27090 ft | 455 kts | 66° |
| 2026-04-24 22:52 | 41.19004 | 36.27572 | 27087 ft | 455 kts | 66° |
| 2026-04-24 22:52 | 41.20109 | 36.31544 | 27086 ft | 457 kts | 66° |
| 2026-04-24 22:52 | 41.21202 | 36.35481 | 27085 ft | 457 kts | 66° |
| 2026-04-24 22:53 | 41.22302 | 36.39449 | 27088 ft | 456 kts | 66° |
| 2026-04-24 22:53 | 41.23398 | 36.43411 | 27087 ft | 456 kts | 66° |
| 2026-04-24 22:53 | 41.24486 | 36.47348 | 27084 ft | 457 kts | 66° |
| 2026-04-24 22:53 | 41.25501 | 36.51367 | 27092 ft | 459 kts | 71° |
| 2026-04-24 22:54 | 41.26165 | 36.55561 | 27092 ft | 464 kts | 81° |
| 2026-04-24 22:54 | 41.26290 | 36.59809 | 27096 ft | 465 kts | 90° |
| 2026-04-24 22:54 | 41.26123 | 36.64108 | 27095 ft | 466 kts | 94° |
| 2026-04-24 22:54 | 41.25824 | 36.68404 | 27094 ft | 465 kts | 96° |
| 2026-04-24 22:55 | 41.25467 | 36.72694 | 27098 ft | 466 kts | 96° |
| 2026-04-24 22:55 | 41.25100 | 36.76924 | 27092 ft | 466 kts | 97° |
| 2026-04-24 22:55 | 41.24726 | 36.81245 | 27098 ft | 467 kts | 97° |
| 2026-04-24 22:55 | 41.24367 | 36.85508 | 27097 ft | 468 kts | 96° |
| 2026-04-24 22:56 | 41.24015 | 36.89787 | 27094 ft | 467 kts | 96° |
| 2026-04-24 22:56 | 41.23669 | 36.94067 | 27105 ft | 468 kts | 96° |
| 2026-04-24 22:56 | 41.23325 | 36.98399 | 27096 ft | 468 kts | 96° |
| 2026-04-24 22:56 | 41.22991 | 37.02648 | 27102 ft | 468 kts | 96° |
| 2026-04-24 22:57 | 41.22652 | 37.06986 | 27097 ft | 468 kts | 96° |
| 2026-04-24 22:57 | 41.22316 | 37.11285 | 27103 ft | 470 kts | 96° |
| 2026-04-24 22:57 | 41.21981 | 37.15581 | 27098 ft | 470 kts | 96° |
| 2026-04-24 22:57 | 41.21643 | 37.19890 | 27099 ft | 469 kts | 96° |
| 2026-04-24 22:58 | 41.21304 | 37.24217 | 27098 ft | 471 kts | 96° |
| 2026-04-24 22:58 | 41.20976 | 37.28535 | 27096 ft | 470 kts | 96° |
| 2026-04-24 22:58 | 41.20657 | 37.32847 | 27091 ft | 470 kts | 96° |
| 2026-04-24 22:58 | 41.20343 | 37.37153 | 27096 ft | 470 kts | 96° |
| 2026-04-24 22:59 | 41.20029 | 37.41467 | 27093 ft | 471 kts | 96° |
| 2026-04-24 22:59 | 41.19711 | 37.45800 | 27088 ft | 470 kts | 96° |
| 2026-04-24 22:59 | 41.19070 | 37.54436 | 27085 ft | 472 kts | 96° |
| 2026-04-24 23:00 | 41.18764 | 37.58786 | 27088 ft | 472 kts | 95° |
| 2026-04-24 23:00 | 41.18514 | 37.63108 | 27086 ft | 472 kts | 95° |
| 2026-04-24 23:00 | 41.18235 | 37.67442 | 27081 ft | 470 kts | 96° |
| 2026-04-24 23:00 | 41.17907 | 37.71742 | 27083 ft | 471 kts | 97° |
| 2026-04-24 23:01 | 41.17549 | 37.76052 | 27076 ft | 471 kts | 98° |
| 2026-04-24 23:01 | 41.17176 | 37.80353 | 27080 ft | 471 kts | 98° |
| 2026-04-24 23:01 | 41.16793 | 37.84712 | 27078 ft | 472 kts | 98° |
| 2026-04-24 23:01 | 41.16416 | 37.88999 | 27074 ft | 471 kts | 98° |
| 2026-04-24 23:02 | 41.16050 | 37.93288 | 27077 ft | 471 kts | 98° |
| 2026-04-24 23:02 | 41.15691 | 37.97646 | 27071 ft | 472 kts | 97° |
| 2026-04-24 23:02 | 41.15342 | 38.01972 | 27079 ft | 471 kts | 97° |
| 2026-04-24 23:02 | 41.14997 | 38.06290 | 27080 ft | 472 kts | 97° |
| 2026-04-24 23:03 | 41.14648 | 38.10643 | 27074 ft | 472 kts | 97° |
| 2026-04-24 23:03 | 41.14302 | 38.14959 | 27074 ft | 472 kts | 97° |
| 2026-04-24 23:03 | 41.13950 | 38.19307 | 27073 ft | 473 kts | 98° |
| 2026-04-24 23:03 | 41.13598 | 38.23613 | 27077 ft | 473 kts | 97° |
| 2026-04-24 23:04 | 41.13240 | 38.27964 | 27080 ft | 472 kts | 97° |
| 2026-04-24 23:04 | 41.12884 | 38.32265 | 27077 ft | 474 kts | 97° |
| 2026-04-24 23:04 | 41.12522 | 38.36656 | 27075 ft | 474 kts | 98° |
| 2026-04-24 23:04 | 41.12165 | 38.40968 | 27078 ft | 474 kts | 98° |
| 2026-04-24 23:05 | 41.11805 | 38.45304 | 27078 ft | 474 kts | 98° |
| 2026-04-24 23:05 | 41.11440 | 38.49675 | 27080 ft | 475 kts | 98° |
| 2026-04-24 23:05 | 41.11075 | 38.54023 | 27083 ft | 475 kts | 98° |
| 2026-04-24 23:05 | 41.10712 | 38.58332 | 27076 ft | 475 kts | 98° |
| 2026-04-24 23:06 | 41.10341 | 38.62708 | 27080 ft | 475 kts | 98° |
| 2026-04-24 23:06 | 41.09965 | 38.67071 | 27074 ft | 474 kts | 99° |
| 2026-04-24 23:06 | 41.09587 | 38.71411 | 27081 ft | 475 kts | 99° |
| 2026-04-24 23:06 | 41.09206 | 38.75709 | 27084 ft | 474 kts | 99° |
| 2026-04-24 23:07 | 41.08812 | 38.80085 | 27083 ft | 476 kts | 99° |
| 2026-04-24 23:07 | 41.08418 | 38.84417 | 27077 ft | 476 kts | 99° |
| 2026-04-24 23:07 | 41.08022 | 38.88757 | 27086 ft | 476 kts | 99° |
| 2026-04-24 23:07 | 41.07627 | 38.93081 | 27075 ft | 475 kts | 99° |
| 2026-04-24 23:08 | 41.07223 | 38.97473 | 27078 ft | 475 kts | 99° |
| 2026-04-24 23:08 | 41.06826 | 39.01774 | 27080 ft | 476 kts | 99° |
| 2026-04-24 23:08 | 41.06417 | 39.06183 | 27075 ft | 477 kts | 99° |
| 2026-04-24 23:08 | 41.06012 | 39.10545 | 27078 ft | 476 kts | 99° |
| 2026-04-24 23:09 | 41.05608 | 39.14895 | 27069 ft | 477 kts | 99° |
| 2026-04-24 23:09 | 41.05205 | 39.19259 | 27080 ft | 477 kts | 99° |
| 2026-04-24 23:09 | 41.04807 | 39.23590 | 27069 ft | 477 kts | 99° |
| 2026-04-24 23:09 | 41.04403 | 39.28007 | 27070 ft | 477 kts | 99° |
| 2026-04-24 23:10 | 41.04007 | 39.32315 | 27068 ft | 478 kts | 99° |
| 2026-04-24 23:10 | 41.03604 | 39.36686 | 27076 ft | 477 kts | 99° |
| 2026-04-24 23:10 | 41.03195 | 39.41085 | 27068 ft | 476 kts | 99° |
| 2026-04-24 23:10 | 41.02783 | 39.45477 | 27080 ft | 478 kts | 99° |
| 2026-04-24 23:11 | 41.02374 | 39.49820 | 27075 ft | 477 kts | 99° |
| 2026-04-24 23:11 | 41.01964 | 39.54156 | 27078 ft | 478 kts | 99° |
| 2026-04-24 23:11 | 41.01544 | 39.58566 | 27074 ft | 477 kts | 99° |
| 2026-04-24 23:11 | 41.01130 | 39.62904 | 27076 ft | 478 kts | 99° |
| 2026-04-24 23:12 | 41.00711 | 39.67269 | 27078 ft | 477 kts | 100° |
| 2026-04-24 23:12 | 41.00290 | 39.71650 | 27079 ft | 478 kts | 100° |
| 2026-04-24 23:12 | 40.99952 | 39.76057 | 27089 ft | 480 kts | 96° |
| 2026-04-24 23:12 | 40.99886 | 39.80432 | 27079 ft | 482 kts | 89° |
| 2026-04-24 23:13 | 41.00189 | 39.84880 | 27084 ft | 483 kts | 83° |
| 2026-04-24 23:13 | 41.00716 | 39.89281 | 27085 ft | 483 kts | 80° |
| 2026-04-24 23:13 | 41.01360 | 39.93637 | 27080 ft | 483 kts | 78° |
| 2026-04-24 23:13 | 41.02059 | 39.97974 | 27078 ft | 483 kts | 78° |
| 2026-04-24 23:14 | 41.02773 | 40.02333 | 27083 ft | 482 kts | 78° |
| 2026-04-24 23:14 | 41.03470 | 40.06634 | 27083 ft | 483 kts | 78° |
| 2026-04-24 23:14 | 41.04165 | 40.11017 | 27068 ft | 483 kts | 78° |
| 2026-04-24 23:14 | 41.04838 | 40.15360 | 27088 ft | 484 kts | 78° |
| 2026-04-24 23:15 | 41.05505 | 40.19744 | 27083 ft | 483 kts | 79° |
| 2026-04-24 23:15 | 41.06156 | 40.24089 | 27092 ft | 486 kts | 79° |
| 2026-04-24 23:15 | 41.06804 | 40.28454 | 27083 ft | 485 kts | 79° |
| 2026-04-24 23:15 | 41.07450 | 40.32841 | 27088 ft | 485 kts | 79° |
| 2026-04-24 23:16 | 41.08098 | 40.37269 | 27092 ft | 485 kts | 79° |
| 2026-04-24 23:16 | 41.08741 | 40.41689 | 27095 ft | 486 kts | 79° |
| 2026-04-24 23:16 | 41.09369 | 40.46016 | 27087 ft | 485 kts | 79° |
| 2026-04-24 23:16 | 41.10010 | 40.50448 | 27090 ft | 486 kts | 79° |
| 2026-04-24 23:17 | 41.10649 | 40.54874 | 27090 ft | 487 kts | 79° |
| 2026-04-24 23:17 | 41.11279 | 40.59254 | 27092 ft | 489 kts | 79° |
| 2026-04-24 23:17 | 41.11910 | 40.63661 | 27096 ft | 486 kts | 79° |
| 2026-04-24 23:17 | 41.12544 | 40.68097 | 27089 ft | 487 kts | 80° |
| 2026-04-24 23:18 | 41.13173 | 40.72503 | 27091 ft | 489 kts | 80° |
| 2026-04-24 23:18 | 41.13813 | 40.77001 | 27086 ft | 488 kts | 80° |
| 2026-04-24 23:18 | 41.14445 | 40.81443 | 27091 ft | 489 kts | 81° |
| 2026-04-24 23:18 | 41.15071 | 40.85865 | 27089 ft | 489 kts | 80° |
| 2026-04-24 23:19 | 41.15689 | 40.90255 | 27082 ft | 489 kts | 80° |
| 2026-04-24 23:19 | 41.16312 | 40.94687 | 27104 ft | 489 kts | 80° |
| 2026-04-24 23:19 | 41.16769 | 40.97957 | 27096 ft | 489 kts | 80° |
| 2026-04-24 23:19 | 41.17388 | 41.02392 | 27099 ft | 492 kts | 80° |
| 2026-04-24 23:20 | 41.18004 | 41.06808 | 27101 ft | 490 kts | 81° |
| 2026-04-24 23:20 | 41.18623 | 41.11265 | 27113 ft | 491 kts | 81° |
| 2026-04-24 23:20 | 41.19234 | 41.15667 | 27115 ft | 490 kts | 80° |
| 2026-04-24 23:20 | 41.19854 | 41.20141 | 27114 ft | 492 kts | 80° |
| 2026-04-24 23:21 | 41.20475 | 41.24639 | 27126 ft | 493 kts | 80° |
| 2026-04-24 23:21 | 41.21087 | 41.29089 | 27127 ft | 494 kts | 80° |
| 2026-04-24 23:21 | 41.21697 | 41.33553 | 27109 ft | 493 kts | 81° |
| 2026-04-24 23:21 | 41.22310 | 41.38043 | 27106 ft | 493 kts | 80° |
| 2026-04-24 23:22 | 41.22918 | 41.42502 | 27090 ft | 493 kts | 81° |
| 2026-04-24 23:22 | 41.23533 | 41.47028 | 27096 ft | 493 kts | 80° |
| 2026-04-24 23:22 | 41.24133 | 41.51472 | 27085 ft | 494 kts | 81° |
| 2026-04-24 23:22 | 41.24739 | 41.55967 | 27094 ft | 495 kts | 81° |
| 2026-04-24 23:23 | 41.25344 | 41.60477 | 27081 ft | 493 kts | 81° |
| 2026-04-24 23:23 | 41.25950 | 41.64984 | 27112 ft | 496 kts | 80° |
| 2026-04-24 23:23 | 41.26547 | 41.69448 | 27109 ft | 492 kts | 81° |
| 2026-04-24 23:23 | 41.27143 | 41.73925 | 27125 ft | 492 kts | 82° |
| 2026-04-24 23:24 | 41.27738 | 41.78408 | 27118 ft | 497 kts | 81° |
| 2026-04-24 23:24 | 41.28344 | 41.82995 | 27122 ft | 496 kts | 82° |
| 2026-04-24 23:24 | 41.28928 | 41.87429 | 27110 ft | 494 kts | 82° |
| 2026-04-24 23:24 | 41.29525 | 41.91958 | 27115 ft | 494 kts | 82° |
| 2026-04-24 23:25 | 41.30117 | 41.96472 | 27090 ft | 497 kts | 82° |
| 2026-04-24 23:25 | 41.30706 | 42.00995 | 27087 ft | 497 kts | 82° |
| 2026-04-24 23:25 | 41.31294 | 42.05518 | 27101 ft | 495 kts | 82° |
| 2026-04-24 23:25 | 41.31871 | 42.09993 | 27075 ft | 497 kts | 82° |
| 2026-04-24 23:26 | 41.32449 | 42.14496 | 27079 ft | 497 kts | 82° |
| 2026-04-24 23:26 | 41.33033 | 42.19060 | 27085 ft | 497 kts | 82° |
| 2026-04-24 23:26 | 41.33610 | 42.23591 | 27092 ft | 496 kts | 82° |
| 2026-04-24 23:26 | 41.34179 | 42.28067 | 27068 ft | 496 kts | 82° |
| 2026-04-24 23:27 | 41.34754 | 42.32607 | 27070 ft | 495 kts | 82° |
| 2026-04-24 23:27 | 41.35324 | 42.37126 | 27052 ft | 496 kts | 81° |
| 2026-04-24 23:27 | 41.35888 | 42.41616 | 27040 ft | 494 kts | 82° |
| 2026-04-24 23:27 | 41.36456 | 42.46154 | 26992 ft | 495 kts | 81° |
| 2026-04-24 23:28 | 41.37020 | 42.50666 | 26860 ft | 496 kts | 81° |
| 2026-04-24 23:28 | 41.37584 | 42.55188 | 26681 ft | 494 kts | 82° |
| 2026-04-24 23:28 | 41.38144 | 42.59676 | 26535 ft | 492 kts | 82° |
| 2026-04-24 23:28 | 41.38702 | 42.64162 | 26383 ft | 492 kts | 82° |
| 2026-04-24 23:29 | 41.39256 | 42.68638 | 26218 ft | 491 kts | 83° |
| 2026-04-24 23:29 | 41.39805 | 42.73124 | 26033 ft | 493 kts | 82° |
| 2026-04-24 23:29 | 41.40351 | 42.77595 | 25760 ft | 493 kts | 82° |
| 2026-04-24 23:29 | 41.40900 | 42.82111 | 25519 ft | 489 kts | 82° |
| 2026-04-24 23:30 | 41.41441 | 42.86565 | 25259 ft | 484 kts | 82° |
| 2026-04-24 23:30 | 41.41974 | 42.90965 | 24998 ft | 486 kts | 82° |
| 2026-04-24 23:30 | 41.42509 | 42.95393 | 24740 ft | 484 kts | 83° |
| 2026-04-24 23:30 | 41.43038 | 42.99780 | 24485 ft | 479 kts | 82° |
| 2026-04-24 23:31 | 41.43562 | 43.04153 | 24237 ft | 478 kts | 82° |
| 2026-04-24 23:31 | 41.44085 | 43.08509 | 23974 ft | 476 kts | 82° |
| 2026-04-24 23:31 | 41.44605 | 43.12865 | 23727 ft | 473 kts | 83° |
| 2026-04-24 23:31 | 41.45115 | 43.17147 | 23470 ft | 470 kts | 83° |
| 2026-04-24 23:32 | 41.45624 | 43.21434 | 23199 ft | 467 kts | 83° |
| 2026-04-24 23:32 | 41.46128 | 43.25690 | 22951 ft | 467 kts | 83° |
| 2026-04-24 23:32 | 41.46632 | 43.29955 | 22691 ft | 467 kts | 83° |
| 2026-04-24 23:32 | 41.47136 | 43.34219 | 22442 ft | 462 kts | 83° |
| 2026-04-24 23:33 | 41.47629 | 43.38413 | 22030 ft | 461 kts | 82° |
| 2026-04-24 23:33 | 41.48128 | 43.42667 | 21451 ft | 460 kts | 83° |
| 2026-04-24 23:33 | 41.48611 | 43.46799 | 20846 ft | 455 kts | 83° |
| 2026-04-24 23:33 | 41.49099 | 43.50975 | 20216 ft | 449 kts | 83° |
| 2026-04-24 23:34 | 41.49570 | 43.55023 | 19616 ft | 445 kts | 83° |
| 2026-04-24 23:34 | 41.50045 | 43.59109 | 19005 ft | 442 kts | 83° |
| 2026-04-24 23:34 | 41.50510 | 43.63147 | 18392 ft | 437 kts | 83° |
| 2026-04-24 23:34 | 41.50964 | 43.67091 | 17784 ft | 433 kts | 84° |
| 2026-04-24 23:35 | 41.51414 | 43.71010 | 17182 ft | 427 kts | 84° |
| 2026-04-24 23:35 | 41.51857 | 43.74898 | 16572 ft | 420 kts | 83° |
| 2026-04-24 23:35 | 41.52288 | 43.78700 | 15976 ft | 414 kts | 83° |
| 2026-04-24 23:35 | 41.52713 | 43.82453 | 15374 ft | 408 kts | 83° |
| 2026-04-24 23:36 | 41.53130 | 43.86175 | 14770 ft | 403 kts | 83° |
| 2026-04-24 23:36 | 41.53541 | 43.89877 | 14155 ft | 398 kts | 82° |
| 2026-04-24 23:36 | 41.53936 | 43.93449 | 13572 ft | 392 kts | 82° |
| 2026-04-24 23:36 | 41.54335 | 43.97050 | 12950 ft | 386 kts | 82° |
| 2026-04-24 23:37 | 41.54723 | 44.00552 | 12418 ft | 377 kts | 81° |
| 2026-04-24 23:37 | 41.55099 | 44.03945 | 12016 ft | 367 kts | 82° |
| 2026-04-24 23:37 | 41.55824 | 44.10527 | 11263 ft | 350 kts | 81° |
| 2026-04-24 23:38 | 41.56169 | 44.13662 | 11029 ft | 339 kts | 81° |
| 2026-04-24 23:38 | 41.56502 | 44.16707 | 10932 ft | 327 kts | 81° |
| 2026-04-24 23:38 | 41.56836 | 44.19772 | 10635 ft | 332 kts | 81° |
| 2026-04-24 23:38 | 41.57102 | 44.22788 | 10270 ft | 329 kts | 86° |
| 2026-04-24 23:39 | 41.57013 | 44.25776 | 9992 ft | 321 kts | 97° |
| 2026-04-24 23:39 | 41.56649 | 44.28709 | 9756 ft | 316 kts | 102° |
| 2026-04-24 23:39 | 41.56204 | 44.31592 | 9500 ft | 316 kts | 102° |
| 2026-04-24 23:39 | 41.55766 | 44.34453 | 9252 ft | 315 kts | 102° |
| 2026-04-24 23:40 | 41.55357 | 44.37310 | 9000 ft | 312 kts | 101° |
| 2026-04-24 23:40 | 41.54975 | 44.40145 | 8761 ft | 307 kts | 100° |
| 2026-04-24 23:40 | 41.54607 | 44.42942 | 8507 ft | 305 kts | 100° |
| 2026-04-24 23:40 | 41.54248 | 44.45687 | 8251 ft | 301 kts | 99° |
| 2026-04-24 23:41 | 41.53887 | 44.48453 | 8006 ft | 301 kts | 99° |
| 2026-04-24 23:41 | 41.53528 | 44.51184 | 7738 ft | 298 kts | 99° |
| 2026-04-24 23:41 | 41.53177 | 44.53875 | 7482 ft | 295 kts | 99° |
| 2026-04-24 23:41 | 41.52828 | 44.56575 | 7229 ft | 293 kts | 99° |
| 2026-04-24 23:42 | 41.52475 | 44.59275 | 7027 ft | 292 kts | 99° |
| 2026-04-24 23:42 | 41.52125 | 44.61920 | 6992 ft | 289 kts | 99° |
| 2026-04-24 23:42 | 41.51776 | 44.64555 | 6998 ft | 291 kts | 99° |
| 2026-04-24 23:42 | 41.51424 | 44.67224 | 7004 ft | 292 kts | 100° |
| 2026-04-24 23:43 | 41.51068 | 44.69887 | 7005 ft | 294 kts | 100° |
| 2026-04-24 23:43 | 41.50709 | 44.72561 | 7008 ft | 291 kts | 100° |
| 2026-04-24 23:43 | 41.50348 | 44.75240 | 6877 ft | 294 kts | 100° |
| 2026-04-24 23:43 | 41.49986 | 44.77924 | 6498 ft | 292 kts | 100° |
| 2026-04-24 23:44 | 41.49628 | 44.80582 | 6244 ft | 287 kts | 99° |
| 2026-04-24 23:44 | 41.49284 | 44.83143 | 5999 ft | 282 kts | 99° |
| 2026-04-24 23:44 | 41.48938 | 44.85707 | 5747 ft | 276 kts | 100° |
| 2026-04-24 23:44 | 41.48598 | 44.88191 | 5499 ft | 269 kts | 99° |
| 2026-04-24 23:45 | 41.48264 | 44.90615 | 5246 ft | 262 kts | 99° |
| 2026-04-24 23:45 | 41.47943 | 44.92953 | 4999 ft | 255 kts | 100° |
| 2026-04-24 23:45 | 41.47630 | 44.95247 | 4752 ft | 247 kts | 100° |
| 2026-04-24 23:45 | 41.47329 | 44.97463 | 4501 ft | 235 kts | 100° |
| 2026-04-24 23:46 | 41.47051 | 44.99546 | 4254 ft | 224 kts | 100° |
| 2026-04-24 23:46 | 41.46785 | 45.01535 | 4031 ft | 212 kts | 100° |
| 2026-04-24 23:46 | 41.46529 | 45.03418 | 3991 ft | 197 kts | 100° |
| 2026-04-24 23:46 | 41.46396 | 45.05204 | 4000 ft | 196 kts | 86° |
| 2026-04-24 23:47 | 41.46831 | 45.06868 | 3988 ft | 192 kts | 53° |
| 2026-04-24 23:47 | 41.47752 | 45.08166 | 3986 ft | 187 kts | 43° |
| 2026-04-24 23:47 | 41.48615 | 45.09352 | 3975 ft | 170 kts | 45° |
| 2026-04-24 23:47 | 41.49425 | 45.10516 | 3983 ft | 170 kts | 45° |
| 2026-04-24 23:48 | 41.50240 | 45.11662 | 3984 ft | 173 kts | 43° |
| 2026-04-24 23:48 | 41.51210 | 45.12585 | 3978 ft | 170 kts | 18° |
| 2026-04-24 23:48 | 41.52002 | 45.12715 | 3981 ft | 168 kts | 352° |
| 2026-04-24 23:48 | 41.52886 | 45.12204 | 3991 ft | 165 kts | 322° |
| 2026-04-24 23:49 | 41.53783 | 45.11254 | 3988 ft | 168 kts | 321° |
| 2026-04-24 23:49 | 41.54694 | 45.10272 | 3989 ft | 167 kts | 319° |
| 2026-04-24 23:49 | 41.55562 | 45.09256 | 3983 ft | 166 kts | 317° |
| 2026-04-24 23:49 | 41.56426 | 45.08209 | 3985 ft | 166 kts | 316° |
| 2026-04-24 23:50 | 41.57287 | 45.07149 | 3865 ft | 169 kts | 316° |
| 2026-04-24 23:50 | 41.58122 | 45.06114 | 3613 ft | 158 kts | 316° |
| 2026-04-24 23:50 | 41.58892 | 45.05156 | 3408 ft | 146 kts | 317° |
| 2026-04-24 23:50 | 41.59636 | 45.04226 | 3220 ft | 148 kts | 317° |
| 2026-04-24 23:51 | 41.60400 | 45.03271 | 3012 ft | 150 kts | 317° |
| 2026-04-24 23:51 | 41.61150 | 45.02332 | 2800 ft | 146 kts | 317° |
| 2026-04-24 23:51 | 41.61894 | 45.01400 | 2604 ft | 145 kts | 317° |
| 2026-04-24 23:51 | 41.62622 | 45.00487 | 2404 ft | 143 kts | 316° |
| 2026-04-24 23:52 | 41.63358 | 44.99573 | 2186 ft | 143 kts | 317° |
| 2026-04-24 23:52 | 41.64082 | 44.98677 | 2013 ft | 143 kts | 316° |
| 2026-04-24 23:52 | 41.64799 | 44.97773 | 1784 ft | 140 kts | 317° |
| 2026-04-24 23:52 | 41.65488 | 44.96912 | 1629 ft | 133 kts | 316° |
| 2026-04-24 23:53 | 41.66142 | 44.96085 | 1521 ft | 114 kts | 316° |
| 2026-04-24 23:53 | 41.66571 | 44.95544 | 1533 ft | 61 kts | 316° |
| 2026-04-24 23:53 | 41.66786 | 44.95272 | 1536 ft | 26 kts | 316° |
| 2026-04-24 23:53 | 41.66906 | 44.95196 | 1540 ft | 17 kts | 51° |
| 2026-04-24 23:54 | 41.66978 | 44.95298 | 1545 ft | 13 kts | 44° |
| 2026-04-24 23:54 | 41.67033 | 44.95369 | 1548 ft | 8 kts | 44° |
| 2026-04-24 23:54 | 41.67088 | 44.95438 | 1552 ft | 11 kts | 43° |
| 2026-04-24 23:54 | 41.67152 | 44.95520 | 1559 ft | 13 kts | 43° |
| 2026-04-24 23:55 | 41.67209 | 44.95591 | 1565 ft | 10 kts | 43° |
| 2026-04-24 23:55 | 41.67214 | 44.95691 | 1569 ft | 17 kts | 130° |
| 2026-04-24 23:55 | 41.67111 | 44.95835 | 1566 ft | 22 kts | 134° |
| 2026-04-24 23:55 | 41.67023 | 44.95992 | 1567 ft | 20 kts | 133° |
| 2026-04-24 23:56 | 41.66923 | 44.96131 | 1564 ft | 21 kts | 134° |
| 2026-04-24 23:56 | 41.66857 | 44.96223 | 1563 ft | 8 kts | 133° |
| 2026-04-24 23:56 | 41.66844 | 44.96264 | 1564 ft | 4 kts | 66° |
| 2026-04-24 23:56 | 41.66877 | 44.96310 | 1568 ft | 3 kts | 43° |
| 2026-04-24 23:57 | 41.66884 | 44.96320 | 1569 ft | 1 kts | 43° |
| 2026-04-24 23:57 | 41.66890 | 44.96327 | 1569 ft | 0 kts | 43° |
| 2026-04-24 23:57 | 41.66893 | 44.96331 | 1570 ft | 0 kts | 43° |